Randolph, NH (03593)

12:17 PM EDT on September 25, 2016 (GMT -0400)
Norwegian village | | Change Station

Elev 1099 ft 44.48 °N, 71.17 °W | Updated 9 seconds ago

Scattered Clouds
Scattered Clouds
54.9 °F
Feels Like 54.9 °F
N
1.6
Wind Variable Wind from West
Gusts 3.1 mph

Today
High -- | Low -- °F
--% Chance of Precip.
Yesterday
High -- | Low -- °F
Precip. -- in
Pressure 30.13 in
Visibility 10.0 miles
Clouds Scattered Clouds 4900 ft
Dew Point 36 °F
Humidity 48%
Rainfall 0.00 in
Snow Depth Not available.
6:35 AM 6:35 PM
Waning Crescent, 26% visible
METAR KBML 251552Z AUTO 32009G22KT 10SM SCT049 11/M01 A3010 RMK AO2 SLP201 T01111006
Pressure 30.13 in
Visibility 10.0 miles
Clouds Scattered Clouds 4900 ft
Dew Point 36 °F
Humidity 48%
Rainfall 0.00 in
Snow Depth Not available.
6:35 AM 6:35 PM
Waning Crescent, 26% visible
METAR KBML 251552Z AUTO 32009G22KT 10SM SCT049 11/M01 A3010 RMK AO2 SLP201 T01111006

10-Day Weather Forecast

Almanac

Astronomy

Sep. 25, 2016 Rise Set
Actual Time
Civil Twilight
Nautical Twilight
Astronomical Twilight
Moon
Length of Visible Light
Length of Day
Tomorrow will be .
, % of the Moon is Illuminated

Today's Extremes

State Highs State Lows

Community

WunderPhotos

Upload Photos

1,941,649 photos uploaded!

WunderBlog® & News

Nearby

Air Quality

  Air Quality AQ Index Pollutant
Not available.

Snow Depth

Station Depth Elevation

Earthquake Activity

City Distance Mag. Time & Date
Minimum magnitude displayed is 2.5.

Coastal Water Temperatures

Place Temperature

Stations

Nearby Weather Stations

Station Location Temp. Windchill Dew Point Humidity Wind Precip. Elev Updated Type
                   

Watches & Warnings

There are currently no watches in effect.